Portada
METAR-TAF:

METAR-TAF

Aeroports :

Vientiane, Laos

latitud: 17-57N, longitud: 102-34E, altitud: 171 m

Observació

L'informe es va fer fa 23 minuts, a les 09:30 UTC
Vent 2 kt del Oest/Sud-Oest
Temperatura 35°C
Humitat 47%
Pressió 1006 hPa
Visibilitat: 8000 m
Núvols disperses a una alçada de 2000 ft

METAR: VLVT 230930Z 24002KT 8000 SCT020 35/22 Q1006 NOSIG

Hora: 16:53 (09:53 UTC)

Pronòstic

L'informe es va fer fa 4 hores i 53 minuts, a les 05:00 UTC
Pronòstic vàlid del 23 a les 06 UTC al 24 a les 06 UTC
Vent 4 kt del Nord/Nord-Oest
Visibilitat: 8000 m
Escasses núvols a una alçada de 2000 ft
Escasses núvols a una alçada de 5000 ft

TAF: VLVT 230500Z 2306/2406 34004KT 8000 FEW020 FEW050

Observacions i pronòstics meteorològics de més de 4000 aeroports (METAR i TAF).

Les estacions disponibles són els punts grocs i vermells al mapa.

Posi el ratolí al punt desitjat per veure el nom de l'estació.

Feu clic per veure les observacions i els pronòstics meteorològics.

Per canviar el mapa: feu clic els botons verds amb una creu de color negre per apropar; al botó verd amb un guió per allunyar la imatge; o en les fletxes verdes per a mapes adjacents.


METAR-TAF: